sensor_id;sensor_type;location;lat;lon;timestamp;P1;durP1;ratioP1;P2;durP2;ratioP2
8572;SDS011;4324;42.012;24.872;2022-08-19T00:00:31;10.17;;;8.53;;
8572;SDS011;4324;42.012;24.872;2022-08-19T00:02:58;9.27;;;8.43;;
8572;SDS011;4324;42.012;24.872;2022-08-19T00:05:25;9.13;;;8.33;;
8572;SDS011;4324;42.012;24.872;2022-08-19T00:07:52;8.80;;;8.07;;
8572;SDS011;4324;42.012;24.872;2022-08-19T00:10:19;8.77;;;8.07;;
8572;SDS011;4324;42.012;24.872;2022-08-19T00:12:47;9.37;;;8.57;;
8572;SDS011;4324;42.012;24.872;2022-08-19T00:15:17;9.27;;;8.37;;
8572;SDS011;4324;42.012;24.872;2022-08-19T00:17:46;9.03;;;8.23;;
8572;SDS011;4324;42.012;24.872;2022-08-19T00:20:15;8.87;;;8.10;;
8572;SDS011;4324;42.012;24.872;2022-08-19T00:22:44;8.60;;;7.90;;
8572;SDS011;4324;42.012;24.872;2022-08-19T00:25:12;9.70;;;8.70;;
8572;SDS011;4324;42.012;24.872;2022-08-19T00:27:40;9.20;;;8.50;;
8572;SDS011;4324;42.012;24.872;2022-08-19T00:30:07;9.30;;;8.57;;
8572;SDS011;4324;42.012;24.872;2022-08-19T00:32:38;8.83;;;8.13;;
8572;SDS011;4324;42.012;24.872;2022-08-19T00:35:06;9.00;;;8.20;;
8572;SDS011;4324;42.012;24.872;2022-08-19T00:37:34;9.63;;;7.90;;
8572;SDS011;4324;42.012;24.872;2022-08-19T00:40:02;8.97;;;8.20;;
8572;SDS011;4324;42.012;24.872;2022-08-19T00:42:31;9.27;;;8.47;;
8572;SDS011;4324;42.012;24.872;2022-08-19T00:44:58;9.00;;;8.30;;
8572;SDS011;4324;42.012;24.872;2022-08-19T00:47:25;9.00;;;8.20;;
8572;SDS011;4324;42.012;24.872;2022-08-19T00:49:56;9.57;;;8.87;;
8572;SDS011;4324;42.012;24.872;2022-08-19T00:52:26;8.90;;;8.20;;
8572;SDS011;4324;42.012;24.872;2022-08-19T00:54:55;8.93;;;8.33;;
8572;SDS011;4324;42.012;24.872;2022-08-19T00:57:23;9.47;;;8.67;;
8572;SDS011;4324;42.012;24.872;2022-08-19T00:59:54;9.43;;;8.53;;
8572;SDS011;4324;42.012;24.872;2022-08-19T01:02:24;9.40;;;8.50;;
8572;SDS011;4324;42.012;24.872;2022-08-19T01:04:52;9.60;;;8.80;;
8572;SDS011;4324;42.012;24.872;2022-08-19T01:07:21;8.57;;;7.87;;
8572;SDS011;4324;42.012;24.872;2022-08-19T01:09:48;9.50;;;8.67;;
8572;SDS011;4324;42.012;24.872;2022-08-19T01:12:15;9.27;;;8.37;;
8572;SDS011;4324;42.012;24.872;2022-08-19T01:14:44;9.47;;;8.57;;
8572;SDS011;4324;42.012;24.872;2022-08-19T01:17:12;9.17;;;8.23;;
8572;SDS011;4324;42.012;24.872;2022-08-19T01:19:41;9.03;;;8.33;;
8572;SDS011;4324;42.012;24.872;2022-08-19T01:22:12;8.77;;;8.03;;
8572;SDS011;4324;42.012;24.872;2022-08-19T01:24:44;9.03;;;8.20;;
8572;SDS011;4324;42.012;24.872;2022-08-19T01:27:11;9.03;;;8.23;;
8572;SDS011;4324;42.012;24.872;2022-08-19T01:29:38;8.67;;;8.07;;
8572;SDS011;4324;42.012;24.872;2022-08-19T01:32:08;8.70;;;8.00;;
8572;SDS011;4324;42.012;24.872;2022-08-19T01:34:37;9.20;;;8.50;;
8572;SDS011;4324;42.012;24.872;2022-08-19T01:37:06;9.30;;;8.60;;
8572;SDS011;4324;42.012;24.872;2022-08-19T01:39:36;8.70;;;8.00;;
8572;SDS011;4324;42.012;24.872;2022-08-19T01:42:06;9.10;;;8.27;;
8572;SDS011;4324;42.012;24.872;2022-08-19T01:44:36;8.80;;;8.10;;
8572;SDS011;4324;42.012;24.872;2022-08-19T01:47:04;9.27;;;8.37;;
8572;SDS011;4324;42.012;24.872;2022-08-19T01:49:31;9.50;;;8.80;;
8572;SDS011;4324;42.012;24.872;2022-08-19T01:51:59;8.80;;;8.03;;
8572;SDS011;4324;42.012;24.872;2022-08-19T01:54:27;9.30;;;8.40;;
8572;SDS011;4324;42.012;24.872;2022-08-19T01:56:55;8.60;;;7.90;;
8572;SDS011;4324;42.012;24.872;2022-08-19T01:59:27;9.00;;;8.23;;
8572;SDS011;4324;42.012;24.872;2022-08-19T02:01:56;9.70;;;8.93;;
8572;SDS011;4324;42.012;24.872;2022-08-19T02:04:22;8.57;;;7.87;;
8572;SDS011;4324;42.012;24.872;2022-08-19T02:06:50;9.43;;;8.63;;
8572;SDS011;4324;42.012;24.872;2022-08-19T02:09:17;9.23;;;8.53;;
8572;SDS011;4324;42.012;24.872;2022-08-19T02:11:44;9.33;;;8.57;;
8572;SDS011;4324;42.012;24.872;2022-08-19T02:14:11;9.63;;;8.73;;
8572;SDS011;4324;42.012;24.872;2022-08-19T02:16:39;8.83;;;8.13;;
8572;SDS011;4324;42.012;24.872;2022-08-19T02:19:06;9.20;;;8.40;;
8572;SDS011;4324;42.012;24.872;2022-08-19T02:21:33;9.33;;;8.57;;
8572;SDS011;4324;42.012;24.872;2022-08-19T02:24:00;9.43;;;8.63;;
8572;SDS011;4324;42.012;24.872;2022-08-19T02:26:28;8.83;;;8.23;;
8572;SDS011;4324;42.012;24.872;2022-08-19T02:28:55;9.67;;;8.87;;
8572;SDS011;4324;42.012;24.872;2022-08-19T02:31:23;8.97;;;8.27;;
8572;SDS011;4324;42.012;24.872;2022-08-19T02:33:54;9.27;;;8.57;;
8572;SDS011;4324;42.012;24.872;2022-08-19T02:36:21;9.13;;;8.43;;
8572;SDS011;4324;42.012;24.872;2022-08-19T02:38:49;9.20;;;8.47;;
8572;SDS011;4324;42.012;24.872;2022-08-19T02:41:16;8.87;;;8.07;;
8572;SDS011;4324;42.012;24.872;2022-08-19T02:43:45;8.23;;;7.57;;
8572;SDS011;4324;42.012;24.872;2022-08-19T02:46:16;9.33;;;8.20;;
8572;SDS011;4324;42.012;24.872;2022-08-19T02:48:46;9.20;;;8.30;;
8572;SDS011;4324;42.012;24.872;2022-08-19T02:51:20;8.80;;;8.00;;
8572;SDS011;4324;42.012;24.872;2022-08-19T02:53:48;8.77;;;8.17;;
8572;SDS011;4324;42.012;24.872;2022-08-19T02:56:15;9.13;;;8.43;;
8572;SDS011;4324;42.012;24.872;2022-08-19T02:58:42;8.73;;;7.93;;
8572;SDS011;4324;42.012;24.872;2022-08-19T03:01:10;8.87;;;8.17;;
8572;SDS011;4324;42.012;24.872;2022-08-19T03:03:45;8.87;;;8.03;;
8572;SDS011;4324;42.012;24.872;2022-08-19T03:06:13;8.80;;;8.10;;
8572;SDS011;4324;42.012;24.872;2022-08-19T03:08:44;9.47;;;8.63;;
8572;SDS011;4324;42.012;24.872;2022-08-19T03:11:12;9.40;;;8.50;;
8572;SDS011;4324;42.012;24.872;2022-08-19T03:13:40;9.17;;;8.27;;
8572;SDS011;4324;42.012;24.872;2022-08-19T03:16:08;8.80;;;8.10;;
8572;SDS011;4324;42.012;24.872;2022-08-19T03:18:36;8.83;;;8.07;;
8572;SDS011;4324;42.012;24.872;2022-08-19T03:21:03;9.07;;;8.37;;
8572;SDS011;4324;42.012;24.872;2022-08-19T03:23:31;9.13;;;8.43;;
8572;SDS011;4324;42.012;24.872;2022-08-19T03:26:02;8.60;;;8.00;;
8572;SDS011;4324;42.012;24.872;2022-08-19T03:28:31;8.97;;;8.17;;
8572;SDS011;4324;42.012;24.872;2022-08-19T03:31:00;8.53;;;7.93;;
8572;SDS011;4324;42.012;24.872;2022-08-19T03:33:30;10.03;;;8.33;;
8572;SDS011;4324;42.012;24.872;2022-08-19T03:36:00;8.83;;;8.13;;
8572;SDS011;4324;42.012;24.872;2022-08-19T03:38:32;8.67;;;7.97;;
8572;SDS011;4324;42.012;24.872;2022-08-19T03:41:03;8.77;;;8.13;;
8572;SDS011;4324;42.012;24.872;2022-08-19T03:43:33;8.80;;;8.20;;
8572;SDS011;4324;42.012;24.872;2022-08-19T03:46:03;9.17;;;8.37;;
8572;SDS011;4324;42.012;24.872;2022-08-19T03:48:32;8.70;;;8.00;;
8572;SDS011;4324;42.012;24.872;2022-08-19T03:50:59;9.23;;;8.43;;
8572;SDS011;4324;42.012;24.872;2022-08-19T03:53:28;8.47;;;7.60;;
8572;SDS011;4324;42.012;24.872;2022-08-19T03:55:57;9.30;;;8.50;;
8572;SDS011;4324;42.012;24.872;2022-08-19T03:58:26;10.37;;;9.10;;
8572;SDS011;4324;42.012;24.872;2022-08-19T04:00:55;11.27;;;10.23;;
8572;SDS011;4324;42.012;24.872;2022-08-19T04:03:22;9.50;;;8.60;;
8572;SDS011;4324;42.012;24.872;2022-08-19T04:05:49;8.93;;;8.13;;
8572;SDS011;4324;42.012;24.872;2022-08-19T04:08:16;9.37;;;8.57;;
8572;SDS011;4324;42.012;24.872;2022-08-19T04:10:45;9.43;;;8.47;;
8572;SDS011;4324;42.012;24.872;2022-08-19T04:13:12;8.77;;;7.97;;
8572;SDS011;4324;42.012;24.872;2022-08-19T04:15:42;9.97;;;7.90;;
8572;SDS011;4324;42.012;24.872;2022-08-19T04:18:11;9.30;;;8.30;;
8572;SDS011;4324;42.012;24.872;2022-08-19T04:20:39;8.90;;;8.20;;
8572;SDS011;4324;42.012;24.872;2022-08-19T04:23:07;9.33;;;8.53;;
8572;SDS011;4324;42.012;24.872;2022-08-19T04:25:35;9.00;;;8.20;;
8572;SDS011;4324;42.012;24.872;2022-08-19T04:28:03;10.83;;;9.73;;
8572;SDS011;4324;42.012;24.872;2022-08-19T04:30:30;10.20;;;9.20;;
8572;SDS011;4324;42.012;24.872;2022-08-19T04:33:04;8.67;;;7.93;;
8572;SDS011;4324;42.012;24.872;2022-08-19T04:35:34;8.90;;;8.10;;
8572;SDS011;4324;42.012;24.872;2022-08-19T04:38:02;8.67;;;8.07;;
8572;SDS011;4324;42.012;24.872;2022-08-19T04:40:30;10.73;;;8.90;;
8572;SDS011;4324;42.012;24.872;2022-08-19T04:43:14;10.17;;;9.07;;
8572;SDS011;4324;42.012;24.872;2022-08-19T04:45:42;9.03;;;8.23;;
8572;SDS011;4324;42.012;24.872;2022-08-19T04:48:11;8.77;;;8.00;;
8572;SDS011;4324;42.012;24.872;2022-08-19T04:50:39;8.63;;;7.83;;
8572;SDS011;4324;42.012;24.872;2022-08-19T04:53:08;8.60;;;7.90;;
8572;SDS011;4324;42.012;24.872;2022-08-19T04:55:38;10.47;;;9.47;;
8572;SDS011;4324;42.012;24.872;2022-08-19T04:58:06;11.40;;;10.30;;
8572;SDS011;4324;42.012;24.872;2022-08-19T05:00:33;11.97;;;10.97;;
8572;SDS011;4324;42.012;24.872;2022-08-19T05:03:01;10.10;;;9.30;;
8572;SDS011;4324;42.012;24.872;2022-08-19T05:05:29;9.87;;;8.87;;
8572;SDS011;4324;42.012;24.872;2022-08-19T05:07:57;9.80;;;9.00;;
8572;SDS011;4324;42.012;24.872;2022-08-19T05:10:24;9.33;;;8.53;;
8572;SDS011;4324;42.012;24.872;2022-08-19T05:12:51;9.47;;;8.83;;
8572;SDS011;4324;42.012;24.872;2022-08-19T05:15:18;9.13;;;8.43;;
8572;SDS011;4324;42.012;24.872;2022-08-19T05:17:45;9.50;;;8.47;;
8572;SDS011;4324;42.012;24.872;2022-08-19T05:20:26;9.27;;;8.57;;
8572;SDS011;4324;42.012;24.872;2022-08-19T05:23:11;9.63;;;8.67;;
8572;SDS011;4324;42.012;24.872;2022-08-19T05:25:42;8.83;;;8.13;;
8572;SDS011;4324;42.012;24.872;2022-08-19T05:28:09;9.53;;;8.63;;
8572;SDS011;4324;42.012;24.872;2022-08-19T05:30:36;9.00;;;8.20;;
8572;SDS011;4324;42.012;24.872;2022-08-19T05:33:05;9.10;;;8.20;;
8572;SDS011;4324;42.012;24.872;2022-08-19T05:35:35;8.70;;;7.93;;
8572;SDS011;4324;42.012;24.872;2022-08-19T05:38:03;10.77;;;8.40;;
8572;SDS011;4324;42.012;24.872;2022-08-19T05:40:34;13.40;;;8.87;;
8572;SDS011;4324;42.012;24.872;2022-08-19T05:43:02;12.53;;;8.83;;
8572;SDS011;4324;42.012;24.872;2022-08-19T05:45:29;9.60;;;8.73;;
8572;SDS011;4324;42.012;24.872;2022-08-19T05:47:56;15.27;;;10.47;;
8572;SDS011;4324;42.012;24.872;2022-08-19T05:50:24;11.03;;;9.87;;
8572;SDS011;4324;42.012;24.872;2022-08-19T05:52:51;8.77;;;7.90;;
8572;SDS011;4324;42.012;24.872;2022-08-19T05:55:18;9.17;;;8.40;;
8572;SDS011;4324;42.012;24.872;2022-08-19T05:57:49;8.47;;;7.77;;
8572;SDS011;4324;42.012;24.872;2022-08-19T06:00:16;10.63;;;9.57;;
8572;SDS011;4324;42.012;24.872;2022-08-19T06:02:43;10.10;;;9.00;;
8572;SDS011;4324;42.012;24.872;2022-08-19T06:05:10;11.13;;;10.20;;
8572;SDS011;4324;42.012;24.872;2022-08-19T06:07:37;10.57;;;9.63;;
8572;SDS011;4324;42.012;24.872;2022-08-19T06:10:07;10.37;;;9.27;;
8572;SDS011;4324;42.012;24.872;2022-08-19T06:12:35;9.83;;;9.03;;
8572;SDS011;4324;42.012;24.872;2022-08-19T06:15:07;8.90;;;8.27;;
8572;SDS011;4324;42.012;24.872;2022-08-19T06:17:36;9.03;;;8.20;;
8572;SDS011;4324;42.012;24.872;2022-08-19T06:20:03;9.07;;;8.37;;
8572;SDS011;4324;42.012;24.872;2022-08-19T06:22:31;10.17;;;8.83;;
8572;SDS011;4324;42.012;24.872;2022-08-19T06:24:58;9.97;;;9.10;;
8572;SDS011;4324;42.012;24.872;2022-08-19T06:27:25;8.97;;;8.37;;
8572;SDS011;4324;42.012;24.872;2022-08-19T06:29:54;8.97;;;8.27;;
8572;SDS011;4324;42.012;24.872;2022-08-19T06:32:23;8.63;;;7.93;;
8572;SDS011;4324;42.012;24.872;2022-08-19T06:34:50;8.77;;;8.07;;
8572;SDS011;4324;42.012;24.872;2022-08-19T06:37:17;9.57;;;8.87;;
8572;SDS011;4324;42.012;24.872;2022-08-19T06:39:44;9.20;;;8.60;;
8572;SDS011;4324;42.012;24.872;2022-08-19T06:42:11;9.93;;;9.00;;
8572;SDS011;4324;42.012;24.872;2022-08-19T06:44:42;10.47;;;9.43;;
8572;SDS011;4324;42.012;24.872;2022-08-19T06:47:10;11.33;;;10.43;;
8572;SDS011;4324;42.012;24.872;2022-08-19T06:49:41;9.07;;;8.30;;
8572;SDS011;4324;42.012;24.872;2022-08-19T06:52:09;9.10;;;8.40;;
8572;SDS011;4324;42.012;24.872;2022-08-19T06:54:38;8.87;;;8.10;;
8572;SDS011;4324;42.012;24.872;2022-08-19T06:57:05;9.73;;;8.93;;
8572;SDS011;4324;42.012;24.872;2022-08-19T06:59:34;8.93;;;8.13;;
8572;SDS011;4324;42.012;24.872;2022-08-19T07:02:03;9.60;;;8.83;;
8572;SDS011;4324;42.012;24.872;2022-08-19T07:04:32;10.87;;;9.43;;
8572;SDS011;4324;42.012;24.872;2022-08-19T07:07:03;11.13;;;10.23;;
8572;SDS011;4324;42.012;24.872;2022-08-19T07:09:33;12.80;;;10.87;;
8572;SDS011;4324;42.012;24.872;2022-08-19T07:12:03;13.10;;;11.87;;
8572;SDS011;4324;42.012;24.872;2022-08-19T07:14:31;15.93;;;14.53;;
8572;SDS011;4324;42.012;24.872;2022-08-19T07:17:03;15.33;;;11.90;;
8572;SDS011;4324;42.012;24.872;2022-08-19T07:19:33;12.53;;;10.73;;
8572;SDS011;4324;42.012;24.872;2022-08-19T07:22:03;12.47;;;10.60;;
8572;SDS011;4324;42.012;24.872;2022-08-19T07:24:32;12.00;;;10.43;;
8572;SDS011;4324;42.012;24.872;2022-08-19T07:27:01;12.43;;;11.10;;
8572;SDS011;4324;42.012;24.872;2022-08-19T07:29:30;12.60;;;11.23;;
8572;SDS011;4324;42.012;24.872;2022-08-19T07:31:59;10.70;;;9.70;;
8572;SDS011;4324;42.012;24.872;2022-08-19T07:34:28;10.63;;;9.60;;
8572;SDS011;4324;42.012;24.872;2022-08-19T07:36:59;13.10;;;11.73;;
8572;SDS011;4324;42.012;24.872;2022-08-19T07:39:29;12.13;;;11.10;;
8572;SDS011;4324;42.012;24.872;2022-08-19T07:41:59;12.90;;;11.30;;
8572;SDS011;4324;42.012;24.872;2022-08-19T07:44:27;13.53;;;11.50;;
8572;SDS011;4324;42.012;24.872;2022-08-19T07:46:55;12.07;;;11.07;;
8572;SDS011;4324;42.012;24.872;2022-08-19T07:49:24;14.33;;;12.83;;
8572;SDS011;4324;42.012;24.872;2022-08-19T07:51:52;14.10;;;12.83;;
8572;SDS011;4324;42.012;24.872;2022-08-19T07:54:22;11.70;;;10.70;;
8572;SDS011;4324;42.012;24.872;2022-08-19T07:56:52;12.87;;;11.53;;
8572;SDS011;4324;42.012;24.872;2022-08-19T07:59:19;11.97;;;10.77;;
8572;SDS011;4324;42.012;24.872;2022-08-19T08:01:46;11.23;;;10.13;;
8572;SDS011;4324;42.012;24.872;2022-08-19T08:04:15;13.40;;;12.10;;
8572;SDS011;4324;42.012;24.872;2022-08-19T08:06:59;12.87;;;11.57;;
8572;SDS011;4324;42.012;24.872;2022-08-19T08:09:59;15.13;;;13.60;;
8572;SDS011;4324;42.012;24.872;2022-08-19T08:12:29;18.07;;;15.93;;
8572;SDS011;4324;42.012;24.872;2022-08-19T08:15:00;20.67;;;18.58;;
8572;SDS011;4324;42.012;24.872;2022-08-19T08:17:31;25.77;;;23.07;;
8572;SDS011;4324;42.012;24.872;2022-08-19T08:19:58;40.95;;;36.53;;
8572;SDS011;4324;42.012;24.872;2022-08-19T08:22:25;13.57;;;12.17;;
8572;SDS011;4324;42.012;24.872;2022-08-19T08:25:11;23.65;;;21.40;;
8572;SDS011;4324;42.012;24.872;2022-08-19T08:27:41;21.60;;;19.17;;
8572;SDS011;4324;42.012;24.872;2022-08-19T08:30:11;24.58;;;22.48;;
8572;SDS011;4324;42.012;24.872;2022-08-19T08:32:40;11.30;;;10.40;;
8572;SDS011;4324;42.012;24.872;2022-08-19T08:35:09;13.27;;;10.48;;
8572;SDS011;4324;42.012;24.872;2022-08-19T08:37:42;13.20;;;12.00;;
8572;SDS011;4324;42.012;24.872;2022-08-19T08:40:13;16.35;;;14.85;;
8572;SDS011;4324;42.012;24.872;2022-08-19T08:42:47;11.95;;;10.75;;
8572;SDS011;4324;42.012;24.872;2022-08-19T08:45:21;11.07;;;10.18;;
8572;SDS011;4324;42.012;24.872;2022-08-19T08:47:50;11.00;;;9.93;;
8572;SDS011;4324;42.012;24.872;2022-08-19T08:50:21;15.00;;;10.82;;
8572;SDS011;4324;42.012;24.872;2022-08-19T08:52:53;18.02;;;16.38;;
8572;SDS011;4324;42.012;24.872;2022-08-19T08:55:25;21.77;;;19.55;;
8572;SDS011;4324;42.012;24.872;2022-08-19T08:57:55;15.55;;;14.10;;
8572;SDS011;4324;42.012;24.872;2022-08-19T09:00:27;11.60;;;10.70;;
8572;SDS011;4324;42.012;24.872;2022-08-19T09:02:56;11.23;;;9.98;;
8572;SDS011;4324;42.012;24.872;2022-08-19T09:05:25;10.27;;;9.48;;
8572;SDS011;4324;42.012;24.872;2022-08-19T09:08:00;11.77;;;10.80;;
8572;SDS011;4324;42.012;24.872;2022-08-19T09:10:33;11.77;;;10.93;;
8572;SDS011;4324;42.012;24.872;2022-08-19T09:13:08;11.38;;;10.30;;
8572;SDS011;4324;42.012;24.872;2022-08-19T09:15:45;13.45;;;12.13;;
8572;SDS011;4324;42.012;24.872;2022-08-19T09:18:14;13.35;;;12.18;;
8572;SDS011;4324;42.012;24.872;2022-08-19T09:20:42;12.57;;;11.55;;
8572;SDS011;4324;42.012;24.872;2022-08-19T09:23:09;11.95;;;11.02;;
8572;SDS011;4324;42.012;24.872;2022-08-19T09:25:36;14.73;;;11.23;;
8572;SDS011;4324;42.012;24.872;2022-08-19T09:28:06;12.57;;;11.27;;
8572;SDS011;4324;42.012;24.872;2022-08-19T09:30:40;11.63;;;10.73;;
8572;SDS011;4324;42.012;24.872;2022-08-19T09:33:07;10.93;;;9.98;;
8572;SDS011;4324;42.012;24.872;2022-08-19T09:35:34;10.55;;;9.52;;
8572;SDS011;4324;42.012;24.872;2022-08-19T09:38:02;10.50;;;9.55;;
8572;SDS011;4324;42.012;24.872;2022-08-19T09:40:29;10.75;;;9.65;;
8572;SDS011;4324;42.012;24.872;2022-08-19T09:42:56;12.05;;;11.05;;
8572;SDS011;4324;42.012;24.872;2022-08-19T09:45:29;9.55;;;8.73;;
8572;SDS011;4324;42.012;24.872;2022-08-19T09:47:56;10.25;;;9.30;;
8572;SDS011;4324;42.012;24.872;2022-08-19T09:50:23;9.80;;;9.00;;
8572;SDS011;4324;42.012;24.872;2022-08-19T09:52:50;9.20;;;8.15;;
8572;SDS011;4324;42.012;24.872;2022-08-19T09:55:22;10.07;;;9.13;;
8572;SDS011;4324;42.012;24.872;2022-08-19T09:57:49;8.98;;;8.27;;
8572;SDS011;4324;42.012;24.872;2022-08-19T10:00:19;8.68;;;7.95;;
8572;SDS011;4324;42.012;24.872;2022-08-19T10:02:48;9.45;;;8.75;;
8572;SDS011;4324;42.012;24.872;2022-08-19T10:05:15;9.43;;;8.20;;
8572;SDS011;4324;42.012;24.872;2022-08-19T10:07:59;8.65;;;7.70;;
8572;SDS011;4324;42.012;24.872;2022-08-19T10:10:27;8.57;;;7.88;;
8572;SDS011;4324;42.012;24.872;2022-08-19T10:12:54;10.10;;;8.43;;
8572;SDS011;4324;42.012;24.872;2022-08-19T10:15:21;9.43;;;8.70;;
8572;SDS011;4324;42.012;24.872;2022-08-19T10:17:49;8.25;;;7.53;;
8572;SDS011;4324;42.012;24.872;2022-08-19T10:20:16;8.45;;;7.75;;
8572;SDS011;4324;42.012;24.872;2022-08-19T10:22:43;8.45;;;7.63;;
8572;SDS011;4324;42.012;24.872;2022-08-19T10:25:10;7.53;;;7.03;;
8572;SDS011;4324;42.012;24.872;2022-08-19T10:27:41;11.85;;;10.73;;
8572;SDS011;4324;42.012;24.872;2022-08-19T10:30:09;10.40;;;9.35;;
8572;SDS011;4324;42.012;24.872;2022-08-19T10:32:36;8.15;;;7.35;;
8572;SDS011;4324;42.012;24.872;2022-08-19T10:35:05;14.60;;;13.18;;
8572;SDS011;4324;42.012;24.872;2022-08-19T10:37:33;7.82;;;7.22;;
8572;SDS011;4324;42.012;24.872;2022-08-19T10:40:00;8.60;;;7.72;;
8572;SDS011;4324;42.012;24.872;2022-08-19T10:42:28;8.63;;;7.57;;
8572;SDS011;4324;42.012;24.872;2022-08-19T10:44:56;9.75;;;8.95;;
8572;SDS011;4324;42.012;24.872;2022-08-19T10:47:23;9.55;;;8.63;;
8572;SDS011;4324;42.012;24.872;2022-08-19T10:49:50;8.20;;;7.53;;
8572;SDS011;4324;42.012;24.872;2022-08-19T10:52:36;8.50;;;7.70;;
8572;SDS011;4324;42.012;24.872;2022-08-19T10:55:04;8.50;;;7.80;;
8572;SDS011;4324;42.012;24.872;2022-08-19T10:57:51;8.02;;;7.45;;
8572;SDS011;4324;42.012;24.872;2022-08-19T11:00:18;7.93;;;7.28;;
8572;SDS011;4324;42.012;24.872;2022-08-19T11:02:46;8.40;;;7.53;;
8572;SDS011;4324;42.012;24.872;2022-08-19T11:05:13;7.32;;;6.82;;
8572;SDS011;4324;42.012;24.872;2022-08-19T11:07:41;7.93;;;7.18;;
8572;SDS011;4324;42.012;24.872;2022-08-19T11:10:10;8.38;;;7.55;;
8572;SDS011;4324;42.012;24.872;2022-08-19T11:12:39;7.82;;;7.00;;
8572;SDS011;4324;42.012;24.872;2022-08-19T11:15:07;7.35;;;6.80;;
8572;SDS011;4324;42.012;24.872;2022-08-19T11:17:36;8.00;;;7.32;;
8572;SDS011;4324;42.012;24.872;2022-08-19T11:20:08;7.47;;;6.90;;
8572;SDS011;4324;42.012;24.872;2022-08-19T11:22:41;8.68;;;8.05;;
8572;SDS011;4324;42.012;24.872;2022-08-19T11:25:09;8.73;;;8.02;;
8572;SDS011;4324;42.012;24.872;2022-08-19T11:27:37;8.65;;;7.75;;
8572;SDS011;4324;42.012;24.872;2022-08-19T11:30:07;8.15;;;7.50;;
8572;SDS011;4324;42.012;24.872;2022-08-19T11:32:36;7.50;;;6.85;;
8572;SDS011;4324;42.012;24.872;2022-08-19T11:35:03;7.38;;;6.78;;
8572;SDS011;4324;42.012;24.872;2022-08-19T11:37:33;8.10;;;7.25;;
8572;SDS011;4324;42.012;24.872;2022-08-19T11:40:05;8.27;;;7.47;;
8572;SDS011;4324;42.012;24.872;2022-08-19T11:42:33;7.72;;;7.07;;
8572;SDS011;4324;42.012;24.872;2022-08-19T11:45:17;8.60;;;7.90;;
8572;SDS011;4324;42.012;24.872;2022-08-19T11:47:44;8.40;;;7.60;;
8572;SDS011;4324;42.012;24.872;2022-08-19T11:50:12;7.40;;;6.72;;
8572;SDS011;4324;42.012;24.872;2022-08-19T11:52:39;8.05;;;7.32;;
8572;SDS011;4324;42.012;24.872;2022-08-19T11:55:08;8.15;;;7.43;;
8572;SDS011;4324;42.012;24.872;2022-08-19T11:57:35;7.05;;;6.43;;
8572;SDS011;4324;42.012;24.872;2022-08-19T12:00:03;7.15;;;6.55;;
8572;SDS011;4324;42.012;24.872;2022-08-19T12:02:32;6.82;;;6.22;;
8572;SDS011;4324;42.012;24.872;2022-08-19T12:04:59;7.85;;;7.15;;
8572;SDS011;4324;42.012;24.872;2022-08-19T12:07:26;7.93;;;7.43;;
8572;SDS011;4324;42.012;24.872;2022-08-19T12:09:54;8.15;;;7.43;;
8572;SDS011;4324;42.012;24.872;2022-08-19T12:12:22;7.32;;;6.78;;
8572;SDS011;4324;42.012;24.872;2022-08-19T12:14:49;7.35;;;6.75;;
8572;SDS011;4324;42.012;24.872;2022-08-19T12:17:21;12.98;;;11.85;;
8572;SDS011;4324;42.012;24.872;2022-08-19T12:19:49;10.35;;;9.13;;
8572;SDS011;4324;42.012;24.872;2022-08-19T12:22:16;8.50;;;7.80;;
8572;SDS011;4324;42.012;24.872;2022-08-19T12:24:43;8.90;;;7.60;;
8572;SDS011;4324;42.012;24.872;2022-08-19T12:27:10;8.60;;;7.30;;
8572;SDS011;4324;42.012;24.872;2022-08-19T12:29:39;8.15;;;7.43;;
8572;SDS011;4324;42.012;24.872;2022-08-19T12:32:06;7.75;;;7.25;;
8572;SDS011;4324;42.012;24.872;2022-08-19T12:34:34;7.88;;;7.28;;
8572;SDS011;4324;42.012;24.872;2022-08-19T12:37:03;7.78;;;7.10;;
8572;SDS011;4324;42.012;24.872;2022-08-19T12:39:34;8.23;;;7.53;;
8572;SDS011;4324;42.012;24.872;2022-08-19T12:42:02;7.93;;;7.22;;
8572;SDS011;4324;42.012;24.872;2022-08-19T12:44:29;7.93;;;7.32;;
8572;SDS011;4324;42.012;24.872;2022-08-19T12:46:58;8.48;;;7.80;;
8572;SDS011;4324;42.012;24.872;2022-08-19T12:49:27;9.40;;;7.72;;
8572;SDS011;4324;42.012;24.872;2022-08-19T12:51:54;7.63;;;7.07;;
8572;SDS011;4324;42.012;24.872;2022-08-19T12:54:21;8.10;;;7.43;;
8572;SDS011;4324;42.012;24.872;2022-08-19T12:56:47;8.63;;;7.85;;
8572;SDS011;4324;42.012;24.872;2022-08-19T12:59:14;8.60;;;7.80;;
8572;SDS011;4324;42.012;24.872;2022-08-19T13:01:43;7.90;;;7.40;;
8572;SDS011;4324;42.012;24.872;2022-08-19T13:04:12;8.63;;;7.88;;
8572;SDS011;4324;42.012;24.872;2022-08-19T13:06:40;8.10;;;7.50;;
8572;SDS011;4324;42.012;24.872;2022-08-19T13:09:07;7.95;;;7.35;;
8572;SDS011;4324;42.012;24.872;2022-08-19T13:11:35;8.48;;;7.78;;
8572;SDS011;4324;42.012;24.872;2022-08-19T13:14:04;8.52;;;7.78;;
8572;SDS011;4324;42.012;24.872;2022-08-19T13:16:31;8.45;;;7.65;;
8572;SDS011;4324;42.012;24.872;2022-08-19T13:18:58;15.85;;;14.25;;
8572;SDS011;4324;42.012;24.872;2022-08-19T13:21:26;11.35;;;10.52;;
8572;SDS011;4324;42.012;24.872;2022-08-19T13:23:55;7.80;;;7.18;;
8572;SDS011;4324;42.012;24.872;2022-08-19T13:26:22;7.38;;;6.88;;
8572;SDS011;4324;42.012;24.872;2022-08-19T13:28:49;7.85;;;7.22;;
8572;SDS011;4324;42.012;24.872;2022-08-19T13:31:35;8.02;;;7.43;;
8572;SDS011;4324;42.012;24.872;2022-08-19T13:34:34;8.48;;;7.78;;
8572;SDS011;4324;42.012;24.872;2022-08-19T13:37:04;9.00;;;8.20;;
8572;SDS011;4324;42.012;24.872;2022-08-19T13:39:31;8.55;;;7.78;;
8572;SDS011;4324;42.012;24.872;2022-08-19T13:42:00;7.88;;;7.18;;
8572;SDS011;4324;42.012;24.872;2022-08-19T13:44:29;8.15;;;7.55;;
8572;SDS011;4324;42.012;24.872;2022-08-19T13:47:00;8.23;;;7.38;;
8572;SDS011;4324;42.012;24.872;2022-08-19T13:49:32;7.65;;;7.10;;
8572;SDS011;4324;42.012;24.872;2022-08-19T13:51:59;8.93;;;8.05;;
8572;SDS011;4324;42.012;24.872;2022-08-19T13:54:28;8.00;;;7.35;;
8572;SDS011;4324;42.012;24.872;2022-08-19T13:56:55;8.40;;;7.65;;
8572;SDS011;4324;42.012;24.872;2022-08-19T13:59:22;8.85;;;8.07;;
8572;SDS011;4324;42.012;24.872;2022-08-19T14:01:50;8.00;;;7.32;;
8572;SDS011;4324;42.012;24.872;2022-08-19T14:04:16;8.25;;;7.55;;
8572;SDS011;4324;42.012;24.872;2022-08-19T14:06:44;7.97;;;7.38;;
8572;SDS011;4324;42.012;24.872;2022-08-19T14:09:10;9.40;;;8.65;;
8572;SDS011;4324;42.012;24.872;2022-08-19T14:11:39;9.18;;;8.48;;
8572;SDS011;4324;42.012;24.872;2022-08-19T14:14:06;8.93;;;7.97;;
8572;SDS011;4324;42.012;24.872;2022-08-19T14:16:33;8.32;;;7.50;;
8572;SDS011;4324;42.012;24.872;2022-08-19T14:19:00;7.70;;;7.18;;
8572;SDS011;4324;42.012;24.872;2022-08-19T14:21:27;8.63;;;7.93;;
8572;SDS011;4324;42.012;24.872;2022-08-19T14:23:54;8.13;;;7.43;;
8572;SDS011;4324;42.012;24.872;2022-08-19T14:26:21;8.73;;;7.90;;
8572;SDS011;4324;42.012;24.872;2022-08-19T14:28:50;8.98;;;8.05;;
8572;SDS011;4324;42.012;24.872;2022-08-19T14:31:18;8.48;;;7.78;;
8572;SDS011;4324;42.012;24.872;2022-08-19T14:33:46;9.40;;;8.43;;
8572;SDS011;4324;42.012;24.872;2022-08-19T14:36:15;8.18;;;7.38;;
8572;SDS011;4324;42.012;24.872;2022-08-19T14:38:42;8.48;;;7.70;;
8572;SDS011;4324;42.012;24.872;2022-08-19T14:41:12;8.50;;;7.72;;
8572;SDS011;4324;42.012;24.872;2022-08-19T14:43:42;8.23;;;7.53;;
8572;SDS011;4324;42.012;24.872;2022-08-19T14:46:14;8.30;;;7.70;;
8572;SDS011;4324;42.012;24.872;2022-08-19T14:48:42;9.18;;;8.48;;
8572;SDS011;4324;42.012;24.872;2022-08-19T14:51:09;8.20;;;7.50;;
8572;SDS011;4324;42.012;24.872;2022-08-19T14:53:36;8.90;;;8.20;;
8572;SDS011;4324;42.012;24.872;2022-08-19T14:56:07;7.78;;;7.18;;
8572;SDS011;4324;42.012;24.872;2022-08-19T14:58:34;8.73;;;8.02;;
8572;SDS011;4324;42.012;24.872;2022-08-19T15:01:02;8.30;;;7.68;;
8572;SDS011;4324;42.012;24.872;2022-08-19T15:03:31;8.57;;;7.88;;
8572;SDS011;4324;42.012;24.872;2022-08-19T15:05:59;8.75;;;8.15;;